createdAt,value
2023-11-07T00:00:43.000Z,0
2023-11-07T00:01:47.000Z,0
2023-11-07T00:02:51.000Z,0
2023-11-07T00:03:55.000Z,0
2023-11-07T00:04:59.000Z,0
2023-11-07T00:06:03.000Z,0
2023-11-07T00:07:07.000Z,0
2023-11-07T00:08:11.000Z,0
2023-11-07T00:09:16.000Z,0
2023-11-07T00:10:20.000Z,0
2023-11-07T00:11:24.000Z,0
2023-11-07T00:12:28.000Z,0
2023-11-07T00:13:32.000Z,0
2023-11-07T00:14:36.000Z,0
2023-11-07T00:15:40.000Z,0
2023-11-07T00:16:45.000Z,0
2023-11-07T00:17:49.000Z,0
2023-11-07T00:18:53.000Z,0
2023-11-07T00:19:57.000Z,0
2023-11-07T00:21:01.000Z,0
2023-11-07T00:22:05.000Z,0
2023-11-07T00:23:10.000Z,0
2023-11-07T00:24:14.000Z,0
2023-11-07T00:25:18.000Z,0
2023-11-07T00:26:22.000Z,0
2023-11-07T00:27:26.000Z,0
2023-11-07T00:28:30.000Z,0
2023-11-07T00:29:34.000Z,0
2023-11-07T00:30:38.000Z,0
2023-11-07T00:31:43.000Z,0
2023-11-07T00:32:47.000Z,0
2023-11-07T00:33:51.000Z,0
2023-11-07T00:34:55.000Z,0
2023-11-07T00:35:59.000Z,0
2023-11-07T00:37:03.000Z,0
2023-11-07T00:38:07.000Z,0
2023-11-07T00:39:12.000Z,0
2023-11-07T00:40:16.000Z,0
2023-11-07T00:41:20.000Z,0
2023-11-07T00:42:24.000Z,0
2023-11-07T00:43:28.000Z,0
2023-11-07T00:44:32.000Z,0
2023-11-07T00:45:37.000Z,0
2023-11-07T00:46:41.000Z,0
2023-11-07T00:47:45.000Z,0
2023-11-07T00:48:49.000Z,0
2023-11-07T00:49:53.000Z,0
2023-11-07T00:50:57.000Z,0
2023-11-07T00:52:01.000Z,0
2023-11-07T00:53:06.000Z,0
2023-11-07T00:54:10.000Z,0
2023-11-07T00:55:14.000Z,0
2023-11-07T00:56:18.000Z,0
2023-11-07T00:57:22.000Z,0
2023-11-07T00:58:26.000Z,0
2023-11-07T00:59:30.000Z,0
2023-11-07T01:00:35.000Z,0
2023-11-07T01:01:39.000Z,0
2023-11-07T01:02:43.000Z,0
2023-11-07T01:03:47.000Z,0
2023-11-07T01:04:51.000Z,0
2023-11-07T01:05:55.000Z,0
2023-11-07T01:06:59.000Z,0
2023-11-07T01:08:03.000Z,0
2023-11-07T01:09:08.000Z,0
2023-11-07T01:10:12.000Z,0
2023-11-07T01:11:16.000Z,0
2023-11-07T01:12:20.000Z,0
2023-11-07T01:13:24.000Z,0
2023-11-07T01:14:28.000Z,0
2023-11-07T01:15:32.000Z,0
2023-11-07T01:16:36.000Z,0
2023-11-07T01:17:41.000Z,0
2023-11-07T01:18:45.000Z,0
2023-11-07T01:19:49.000Z,0
2023-11-07T01:20:53.000Z,0
2023-11-07T01:21:57.000Z,0
2023-11-07T01:23:01.000Z,0
2023-11-07T01:24:05.000Z,0
2023-11-07T01:25:09.000Z,0
2023-11-07T01:26:14.000Z,0
2023-11-07T01:27:18.000Z,0
2023-11-07T01:28:22.000Z,0
2023-11-07T01:29:26.000Z,0
2023-11-07T01:30:30.000Z,0
2023-11-07T01:31:34.000Z,0
2023-11-07T01:32:38.000Z,0
2023-11-07T01:33:43.000Z,0
2023-11-07T01:34:47.000Z,0
2023-11-07T01:35:51.000Z,0
2023-11-07T01:36:55.000Z,0
2023-11-07T01:37:59.000Z,0
2023-11-07T01:39:03.000Z,0
2023-11-07T01:40:07.000Z,0
2023-11-07T01:41:12.000Z,0
2023-11-07T01:42:16.000Z,0
2023-11-07T01:43:20.000Z,0
2023-11-07T01:44:24.000Z,0
2023-11-07T01:45:28.000Z,0
2023-11-07T01:46:33.000Z,0
2023-11-07T01:47:37.000Z,0
2023-11-07T01:48:41.000Z,0
2023-11-07T01:49:45.000Z,0
2023-11-07T01:50:49.000Z,0
2023-11-07T01:51:53.000Z,0
2023-11-07T01:52:57.000Z,0
2023-11-07T01:54:01.000Z,0
2023-11-07T01:55:06.000Z,0
2023-11-07T01:56:10.000Z,0
2023-11-07T01:57:14.000Z,0
2023-11-07T01:58:18.000Z,0
2023-11-07T01:59:22.000Z,0
2023-11-07T02:00:26.000Z,0
2023-11-07T02:01:30.000Z,0
2023-11-07T02:02:35.000Z,0
2023-11-07T02:03:39.000Z,0
2023-11-07T02:04:43.000Z,0
2023-11-07T02:05:47.000Z,0
2023-11-07T02:06:51.000Z,0
2023-11-07T02:07:55.000Z,0
2023-11-07T02:08:59.000Z,0
2023-11-07T02:10:03.000Z,0
2023-11-07T02:11:08.000Z,0
2023-11-07T02:12:12.000Z,0
2023-11-07T02:13:16.000Z,0
2023-11-07T02:14:20.000Z,0
2023-11-07T02:15:24.000Z,0
2023-11-07T02:16:28.000Z,0
2023-11-07T02:17:32.000Z,0
2023-11-07T02:18:37.000Z,0
2023-11-07T02:19:41.000Z,0
2023-11-07T02:20:45.000Z,0
2023-11-07T02:21:49.000Z,0
2023-11-07T02:22:53.000Z,0
2023-11-07T02:23:57.000Z,0
2023-11-07T02:25:02.000Z,0
2023-11-07T02:26:06.000Z,0
2023-11-07T02:27:10.000Z,0
2023-11-07T02:28:14.000Z,0
2023-11-07T02:29:18.000Z,0
2023-11-07T02:30:22.000Z,0
2023-11-07T02:31:26.000Z,0
2023-11-07T02:32:31.000Z,0
2023-11-07T02:33:35.000Z,0
2023-11-07T02:34:39.000Z,0
2023-11-07T02:35:43.000Z,0
2023-11-07T02:36:47.000Z,0
2023-11-07T02:37:51.000Z,0
2023-11-07T02:38:55.000Z,0
2023-11-07T02:40:00.000Z,0
2023-11-07T02:41:04.000Z,0
2023-11-07T02:42:08.000Z,0
2023-11-07T02:43:12.000Z,0
2023-11-07T02:44:16.000Z,0
2023-11-07T02:45:21.000Z,0
2023-11-07T02:46:25.000Z,0
2023-11-07T02:47:29.000Z,0
2023-11-07T02:48:33.000Z,0
2023-11-07T02:49:37.000Z,0
2023-11-07T02:50:41.000Z,0
2023-11-07T02:51:45.000Z,0
2023-11-07T02:52:50.000Z,0
2023-11-07T02:53:54.000Z,0
2023-11-07T02:54:58.000Z,0
2023-11-07T02:56:02.000Z,0
2023-11-07T02:57:06.000Z,0
2023-11-07T02:58:10.000Z,0
2023-11-07T02:59:14.000Z,0
2023-11-07T03:00:19.000Z,0
2023-11-07T03:01:23.000Z,0
2023-11-07T03:02:27.000Z,0
2023-11-07T03:03:31.000Z,0
2023-11-07T03:04:35.000Z,0
2023-11-07T03:05:39.000Z,0
2023-11-07T03:06:43.000Z,0
2023-11-07T03:07:48.000Z,0
2023-11-07T03:08:52.000Z,0
2023-11-07T03:09:56.000Z,0
2023-11-07T03:11:00.000Z,0
2023-11-07T03:12:04.000Z,0
2023-11-07T03:13:08.000Z,0
2023-11-07T03:14:12.000Z,0
2023-11-07T03:15:17.000Z,0
2023-11-07T03:16:21.000Z,0
2023-11-07T03:17:25.000Z,0
2023-11-07T03:18:29.000Z,0
2023-11-07T03:19:33.000Z,0
2023-11-07T03:20:37.000Z,0
2023-11-07T03:21:42.000Z,0
2023-11-07T03:22:46.000Z,0
2023-11-07T03:23:50.000Z,0
2023-11-07T03:24:54.000Z,0
2023-11-07T03:25:58.000Z,0
2023-11-07T03:27:02.000Z,0
2023-11-07T03:28:07.000Z,0
2023-11-07T03:29:11.000Z,0
2023-11-07T03:30:15.000Z,0
2023-11-07T03:31:19.000Z,0
2023-11-07T03:32:23.000Z,0
2023-11-07T03:33:27.000Z,0
2023-11-07T03:34:32.000Z,0
2023-11-07T03:35:36.000Z,0
2023-11-07T03:36:40.000Z,0
2023-11-07T03:37:44.000Z,0
2023-11-07T03:38:48.000Z,0
2023-11-07T03:39:52.000Z,0
2023-11-07T03:40:56.000Z,0
2023-11-07T03:42:01.000Z,0
2023-11-07T03:43:05.000Z,0
2023-11-07T03:44:09.000Z,0
2023-11-07T03:45:13.000Z,0
2023-11-07T03:46:17.000Z,0
2023-11-07T03:47:21.000Z,0
2023-11-07T03:48:25.000Z,0
2023-11-07T03:49:30.000Z,0
2023-11-07T03:50:34.000Z,0
2023-11-07T03:51:38.000Z,0
2023-11-07T03:52:42.000Z,0
2023-11-07T03:53:46.000Z,0
2023-11-07T03:54:50.000Z,0
2023-11-07T03:55:55.000Z,0
2023-11-07T03:56:59.000Z,0
2023-11-07T03:58:03.000Z,0
2023-11-07T03:59:07.000Z,0
2023-11-07T04:00:11.000Z,0
2023-11-07T04:01:15.000Z,0
2023-11-07T04:02:19.000Z,0
2023-11-07T04:03:24.000Z,0
2023-11-07T04:04:28.000Z,0
2023-11-07T04:05:32.000Z,0
2023-11-07T04:06:36.000Z,0
2023-11-07T04:07:40.000Z,0
2023-11-07T04:08:44.000Z,0
2023-11-07T04:09:48.000Z,0
2023-11-07T04:10:53.000Z,0
2023-11-07T04:11:57.000Z,0
2023-11-07T04:13:01.000Z,0
2023-11-07T04:14:05.000Z,0
2023-11-07T04:15:09.000Z,0
2023-11-07T04:16:13.000Z,0
2023-11-07T04:17:17.000Z,0
2023-11-07T04:18:21.000Z,0
2023-11-07T04:19:26.000Z,0
2023-11-07T04:20:30.000Z,0
2023-11-07T04:21:34.000Z,0
2023-11-07T04:22:38.000Z,0
2023-11-07T04:23:42.000Z,0
2023-11-07T04:24:46.000Z,0
2023-11-07T04:25:51.000Z,0
2023-11-07T04:26:55.000Z,0
2023-11-07T04:27:59.000Z,0
2023-11-07T04:29:03.000Z,0
2023-11-07T04:30:07.000Z,0
2023-11-07T04:31:11.000Z,0
2023-11-07T04:32:16.000Z,0
2023-11-07T04:33:20.000Z,0
2023-11-07T04:34:24.000Z,0
2023-11-07T04:35:28.000Z,0
2023-11-07T04:36:32.000Z,0
2023-11-07T04:37:36.000Z,0
2023-11-07T04:38:40.000Z,0
2023-11-07T04:39:45.000Z,0
2023-11-07T04:40:49.000Z,0
2023-11-07T04:41:53.000Z,0
2023-11-07T04:42:57.000Z,0
2023-11-07T04:44:01.000Z,0
2023-11-07T04:45:05.000Z,0
2023-11-07T04:46:09.000Z,0
2023-11-07T04:47:13.000Z,0
2023-11-07T04:48:18.000Z,0
2023-11-07T04:49:22.000Z,0
2023-11-07T04:50:26.000Z,0
2023-11-07T04:51:30.000Z,0
2023-11-07T04:52:34.000Z,0
2023-11-07T04:53:38.000Z,0
2023-11-07T04:54:42.000Z,0
2023-11-07T04:55:47.000Z,0
2023-11-07T04:56:51.000Z,0
2023-11-07T04:57:55.000Z,0
2023-11-07T04:58:59.000Z,0
2023-11-07T05:00:03.000Z,0
2023-11-07T05:01:07.000Z,0
2023-11-07T05:02:12.000Z,0
2023-11-07T05:03:16.000Z,0
2023-11-07T05:04:20.000Z,0
2023-11-07T05:05:24.000Z,0
2023-11-07T05:06:28.000Z,0
2023-11-07T05:07:33.000Z,0
2023-11-07T05:08:37.000Z,0
2023-11-07T05:09:41.000Z,0
2023-11-07T05:10:45.000Z,0
2023-11-07T05:11:49.000Z,0
2023-11-07T05:12:53.000Z,0
2023-11-07T05:13:58.000Z,0
2023-11-07T05:15:02.000Z,0
2023-11-07T05:16:06.000Z,0
2023-11-07T05:17:10.000Z,0
2023-11-07T05:18:14.000Z,0
2023-11-07T05:19:18.000Z,0
2023-11-07T05:20:22.000Z,0
2023-11-07T05:21:27.000Z,0
2023-11-07T05:22:31.000Z,0
2023-11-07T05:23:35.000Z,0
2023-11-07T05:24:39.000Z,0
2023-11-07T05:25:43.000Z,0
2023-11-07T05:26:47.000Z,0
2023-11-07T05:27:52.000Z,0
2023-11-07T05:28:56.000Z,0
2023-11-07T05:30:00.000Z,0
2023-11-07T05:31:04.000Z,0
2023-11-07T05:32:08.000Z,0
2023-11-07T05:33:12.000Z,0
2023-11-07T05:34:16.000Z,0
2023-11-07T05:35:21.000Z,0
2023-11-07T05:36:25.000Z,0
2023-11-07T05:37:29.000Z,0
2023-11-07T05:38:33.000Z,0
2023-11-07T05:39:37.000Z,0
2023-11-07T05:40:41.000Z,0
2023-11-07T05:41:46.000Z,0
2023-11-07T05:42:50.000Z,0
2023-11-07T05:43:54.000Z,0
2023-11-07T05:44:58.000Z,0
2023-11-07T05:46:02.000Z,0
2023-11-07T05:47:06.000Z,0
2023-11-07T05:48:10.000Z,0
2023-11-07T05:49:15.000Z,0
2023-11-07T05:50:19.000Z,0
2023-11-07T05:51:23.000Z,0
2023-11-07T05:52:27.000Z,0
2023-11-07T05:53:31.000Z,0
2023-11-07T05:54:35.000Z,0
2023-11-07T05:55:40.000Z,0
2023-11-07T05:56:44.000Z,0
2023-11-07T05:57:48.000Z,0
2023-11-07T05:58:52.000Z,0
2023-11-07T05:59:56.000Z,0
2023-11-07T06:01:00.000Z,0
2023-11-07T06:02:04.000Z,0
2023-11-07T06:03:09.000Z,0
2023-11-07T06:04:13.000Z,1
2023-11-07T06:05:17.000Z,1
2023-11-07T06:06:21.000Z,1
2023-11-07T06:07:25.000Z,1
2023-11-07T06:08:29.000Z,1
2023-11-07T06:09:33.000Z,1
2023-11-07T06:10:38.000Z,1
2023-11-07T06:11:42.000Z,2
2023-11-07T06:12:46.000Z,2
2023-11-07T06:13:50.000Z,2
2023-11-07T06:14:54.000Z,3
2023-11-07T06:15:59.000Z,3
2023-11-07T06:17:03.000Z,3
2023-11-07T06:18:07.000Z,4
2023-11-07T06:19:11.000Z,4
2023-11-07T06:20:15.000Z,4
2023-11-07T06:21:19.000Z,4
2023-11-07T06:22:23.000Z,5
2023-11-07T06:23:27.000Z,5
2023-11-07T06:24:32.000Z,6
2023-11-07T06:25:36.000Z,7
2023-11-07T06:26:40.000Z,7
2023-11-07T06:27:44.000Z,7
2023-11-07T06:28:48.000Z,7
2023-11-07T06:29:52.000Z,8
2023-11-07T06:30:56.000Z,8
2023-11-07T06:32:01.000Z,9
2023-11-07T06:33:05.000Z,10
2023-11-07T06:34:09.000Z,10
2023-11-07T06:35:13.000Z,11
2023-11-07T06:36:17.000Z,11
2023-11-07T06:37:21.000Z,11
2023-11-07T06:38:25.000Z,12
2023-11-07T06:39:30.000Z,12
2023-11-07T06:40:34.000Z,13
2023-11-07T06:41:38.000Z,13
2023-11-07T06:42:42.000Z,14
2023-11-07T06:43:46.000Z,15
2023-11-07T06:44:50.000Z,16
2023-11-07T06:45:55.000Z,16
2023-11-07T06:46:59.000Z,16
2023-11-07T06:48:03.000Z,16
2023-11-07T06:49:07.000Z,16
2023-11-07T06:50:11.000Z,16
2023-11-07T06:51:15.000Z,16
2023-11-07T06:52:19.000Z,18
2023-11-07T06:53:24.000Z,18
2023-11-07T06:54:28.000Z,18
2023-11-07T06:55:32.000Z,19
2023-11-07T06:56:36.000Z,20
2023-11-07T06:57:40.000Z,22
2023-11-07T06:58:44.000Z,22
2023-11-07T06:59:48.000Z,21
2023-11-07T07:00:53.000Z,21
2023-11-07T07:01:57.000Z,22
2023-11-07T07:03:01.000Z,23
2023-11-07T07:04:05.000Z,24
2023-11-07T07:05:09.000Z,25
2023-11-07T07:06:13.000Z,25
2023-11-07T07:07:17.000Z,26
2023-11-07T07:08:22.000Z,27
2023-11-07T07:09:26.000Z,28
2023-11-07T07:10:30.000Z,28
2023-11-07T07:11:34.000Z,29
2023-11-07T07:12:38.000Z,30
2023-11-07T07:13:42.000Z,31
2023-11-07T07:14:46.000Z,30
2023-11-07T07:15:51.000Z,30
2023-11-07T07:16:55.000Z,32
2023-11-07T07:17:59.000Z,34
2023-11-07T07:19:03.000Z,34
2023-11-07T07:20:07.000Z,33
2023-11-07T07:21:11.000Z,31
2023-11-07T07:22:15.000Z,31
2023-11-07T07:23:20.000Z,30
2023-11-07T07:24:24.000Z,30
2023-11-07T07:25:28.000Z,30
2023-11-07T07:26:32.000Z,31
2023-11-07T07:27:36.000Z,33
2023-11-07T07:28:40.000Z,35
2023-11-07T07:29:44.000Z,39
2023-11-07T07:30:49.000Z,41
2023-11-07T07:31:53.000Z,44
2023-11-07T07:32:57.000Z,45
2023-11-07T07:34:01.000Z,44
2023-11-07T07:35:05.000Z,40
2023-11-07T07:36:09.000Z,36
2023-11-07T07:37:13.000Z,34
2023-11-07T07:38:17.000Z,32
2023-11-07T07:39:22.000Z,31
2023-11-07T07:40:26.000Z,30
2023-11-07T07:41:30.000Z,31
2023-11-07T07:42:34.000Z,32
2023-11-07T07:43:38.000Z,35
2023-11-07T07:44:42.000Z,35
2023-11-07T07:45:47.000Z,36
2023-11-07T07:46:51.000Z,36
2023-11-07T07:47:55.000Z,35
2023-11-07T07:48:59.000Z,35
2023-11-07T07:50:03.000Z,35
2023-11-07T07:51:07.000Z,36
2023-11-07T07:52:12.000Z,36
2023-11-07T07:53:16.000Z,39
2023-11-07T07:54:20.000Z,41
2023-11-07T07:55:24.000Z,42
2023-11-07T07:56:28.000Z,42
2023-11-07T07:57:32.000Z,42
2023-11-07T07:58:36.000Z,44
2023-11-07T07:59:41.000Z,45
2023-11-07T08:00:45.000Z,47
2023-11-07T08:01:49.000Z,53
2023-11-07T08:02:53.000Z,56
2023-11-07T08:03:57.000Z,56
2023-11-07T08:05:01.000Z,52
2023-11-07T08:06:06.000Z,50
2023-11-07T08:07:10.000Z,49
2023-11-07T08:08:14.000Z,51
2023-11-07T08:09:18.000Z,53
2023-11-07T08:10:22.000Z,54
2023-11-07T08:11:26.000Z,54
2023-11-07T08:12:30.000Z,54
2023-11-07T08:13:35.000Z,48
2023-11-07T08:14:39.000Z,51
2023-11-07T08:15:43.000Z,50
2023-11-07T08:16:47.000Z,51
2023-11-07T08:17:51.000Z,50
2023-11-07T08:18:55.000Z,50
2023-11-07T08:20:00.000Z,49
2023-11-07T08:21:04.000Z,48
2023-11-07T08:22:08.000Z,45
2023-11-07T08:23:12.000Z,43
2023-11-07T08:24:16.000Z,41
2023-11-07T08:25:21.000Z,40
2023-11-07T08:26:25.000Z,39
2023-11-07T08:27:29.000Z,40
2023-11-07T08:28:33.000Z,40
2023-11-07T08:29:37.000Z,40
2023-11-07T08:30:41.000Z,40
2023-11-07T08:31:46.000Z,40
2023-11-07T08:32:50.000Z,40
2023-11-07T08:33:54.000Z,41
2023-11-07T08:34:58.000Z,46
2023-11-07T08:36:02.000Z,46
2023-11-07T08:37:06.000Z,43
2023-11-07T08:38:10.000Z,45
2023-11-07T08:39:15.000Z,43
2023-11-07T08:40:19.000Z,43
2023-11-07T08:41:23.000Z,45
2023-11-07T08:42:27.000Z,46
2023-11-07T08:43:31.000Z,44
2023-11-07T08:44:35.000Z,44
2023-11-07T08:45:39.000Z,46
2023-11-07T08:46:44.000Z,48
2023-11-07T08:47:48.000Z,48
2023-11-07T08:48:52.000Z,48
2023-11-07T08:49:56.000Z,49
2023-11-07T08:51:00.000Z,53
2023-11-07T08:52:04.000Z,53
2023-11-07T08:53:08.000Z,46
2023-11-07T08:54:13.000Z,42
2023-11-07T08:55:17.000Z,43
2023-11-07T08:56:21.000Z,43
2023-11-07T08:57:25.000Z,46
2023-11-07T08:58:29.000Z,43
2023-11-07T08:59:33.000Z,45
2023-11-07T09:00:38.000Z,45
2023-11-07T09:01:42.000Z,45
2023-11-07T09:02:46.000Z,47
2023-11-07T09:03:50.000Z,47
2023-11-07T09:04:54.000Z,49
2023-11-07T09:05:58.000Z,47
2023-11-07T09:07:03.000Z,47
2023-11-07T09:08:07.000Z,47
2023-11-07T09:09:11.000Z,52
2023-11-07T09:10:15.000Z,55
2023-11-07T09:11:19.000Z,57
2023-11-07T09:12:23.000Z,53
2023-11-07T09:13:27.000Z,53
2023-11-07T09:14:31.000Z,59
2023-11-07T09:15:36.000Z,59
2023-11-07T09:16:40.000Z,56
2023-11-07T09:17:44.000Z,50
2023-11-07T09:18:48.000Z,46
2023-11-07T09:19:52.000Z,44
2023-11-07T09:20:56.000Z,45
2023-11-07T09:22:00.000Z,45
2023-11-07T09:23:05.000Z,48
2023-11-07T09:24:09.000Z,59
2023-11-07T09:25:13.000Z,66
2023-11-07T09:26:17.000Z,64
2023-11-07T09:27:21.000Z,68
2023-11-07T09:28:25.000Z,58
2023-11-07T09:29:29.000Z,55
2023-11-07T09:30:33.000Z,55
2023-11-07T09:31:38.000Z,58
2023-11-07T09:32:42.000Z,58
2023-11-07T09:33:46.000Z,69
2023-11-07T09:34:50.000Z,80
2023-11-07T09:35:54.000Z,121
2023-11-07T09:36:58.000Z,94
2023-11-07T09:38:02.000Z,95
2023-11-07T09:39:07.000Z,109
2023-11-07T09:40:11.000Z,162
2023-11-07T09:41:15.000Z,161
2023-11-07T09:42:19.000Z,335
2023-11-07T09:43:23.000Z,209
2023-11-07T09:44:27.000Z,186
2023-11-07T09:45:31.000Z,325
2023-11-07T09:46:35.000Z,194
2023-11-07T09:47:40.000Z,318
2023-11-07T09:48:44.000Z,154
2023-11-07T09:49:48.000Z,247
2023-11-07T09:50:52.000Z,118
2023-11-07T09:51:56.000Z,110
2023-11-07T09:53:00.000Z,99
2023-11-07T09:54:04.000Z,60
2023-11-07T09:55:09.000Z,59
2023-11-07T09:56:13.000Z,63
2023-11-07T09:57:17.000Z,72
2023-11-07T09:58:21.000Z,81
2023-11-07T09:59:25.000Z,92
2023-11-07T10:00:29.000Z,110
2023-11-07T10:01:34.000Z,118
2023-11-07T10:02:38.000Z,292
2023-11-07T10:03:42.000Z,314
2023-11-07T10:04:46.000Z,131
2023-11-07T10:05:50.000Z,130
2023-11-07T10:06:54.000Z,120
2023-11-07T10:07:59.000Z,112
2023-11-07T10:09:03.000Z,115
2023-11-07T10:10:07.000Z,127
2023-11-07T10:11:11.000Z,137
2023-11-07T10:12:15.000Z,134
2023-11-07T10:13:20.000Z,140
2023-11-07T10:14:24.000Z,138
2023-11-07T10:15:28.000Z,144
2023-11-07T10:16:32.000Z,145
2023-11-07T10:17:36.000Z,150
2023-11-07T10:18:40.000Z,154
2023-11-07T10:19:44.000Z,160
2023-11-07T10:20:49.000Z,156
2023-11-07T10:21:53.000Z,157
2023-11-07T10:22:57.000Z,155
2023-11-07T10:24:01.000Z,158
2023-11-07T10:25:05.000Z,162
2023-11-07T10:26:09.000Z,166
2023-11-07T10:27:13.000Z,164
2023-11-07T10:28:18.000Z,148
2023-11-07T10:29:22.000Z,146
2023-11-07T10:30:26.000Z,133
2023-11-07T10:31:30.000Z,103
2023-11-07T10:32:34.000Z,85
2023-11-07T10:33:38.000Z,76
2023-11-07T10:34:43.000Z,95
2023-11-07T10:35:47.000Z,123
2023-11-07T10:36:51.000Z,134
2023-11-07T10:37:55.000Z,138
2023-11-07T10:38:59.000Z,151
2023-11-07T10:40:03.000Z,151
2023-11-07T10:41:07.000Z,136
2023-11-07T10:42:12.000Z,127
2023-11-07T10:43:16.000Z,127
2023-11-07T10:44:20.000Z,140
2023-11-07T10:45:24.000Z,152
2023-11-07T10:46:28.000Z,150
2023-11-07T10:47:32.000Z,141
2023-11-07T10:48:37.000Z,138
2023-11-07T10:49:41.000Z,132
2023-11-07T10:50:45.000Z,130
2023-11-07T10:51:49.000Z,135
2023-11-07T10:52:53.000Z,144
2023-11-07T10:53:57.000Z,130
2023-11-07T10:55:01.000Z,123
2023-11-07T10:56:06.000Z,128
2023-11-07T10:57:10.000Z,135
2023-11-07T10:58:14.000Z,134
2023-11-07T10:59:18.000Z,122
2023-11-07T11:00:22.000Z,103
2023-11-07T11:01:26.000Z,92
2023-11-07T11:02:30.000Z,89
2023-11-07T11:03:34.000Z,85
2023-11-07T11:04:39.000Z,84
2023-11-07T11:05:43.000Z,91
2023-11-07T11:06:47.000Z,102
2023-11-07T11:07:51.000Z,101
2023-11-07T11:08:55.000Z,95
2023-11-07T11:10:00.000Z,91
2023-11-07T11:11:04.000Z,91
2023-11-07T11:12:08.000Z,89
2023-11-07T11:13:12.000Z,83
2023-11-07T11:14:16.000Z,72
2023-11-07T11:15:20.000Z,65
2023-11-07T11:16:24.000Z,59
2023-11-07T11:17:29.000Z,54
2023-11-07T11:18:33.000Z,52
2023-11-07T11:19:37.000Z,49
2023-11-07T11:20:41.000Z,43
2023-11-07T11:21:45.000Z,38
2023-11-07T11:22:49.000Z,37
2023-11-07T11:23:53.000Z,35
2023-11-07T11:24:58.000Z,37
2023-11-07T11:26:02.000Z,42
2023-11-07T11:27:06.000Z,49
2023-11-07T11:28:10.000Z,54
2023-11-07T11:29:14.000Z,53
2023-11-07T11:30:18.000Z,51
2023-11-07T11:31:22.000Z,52
2023-11-07T11:32:27.000Z,60
2023-11-07T11:33:31.000Z,74
2023-11-07T11:34:35.000Z,79
2023-11-07T11:35:39.000Z,74
2023-11-07T11:36:43.000Z,66
2023-11-07T11:37:47.000Z,57
2023-11-07T11:38:51.000Z,48
2023-11-07T11:39:55.000Z,44
2023-11-07T11:41:00.000Z,49
2023-11-07T11:42:04.000Z,52
2023-11-07T11:43:08.000Z,52
2023-11-07T11:44:12.000Z,56
2023-11-07T11:45:16.000Z,58
2023-11-07T11:46:20.000Z,51
2023-11-07T11:47:25.000Z,44
2023-11-07T11:48:29.000Z,39
2023-11-07T11:49:33.000Z,41
2023-11-07T11:50:37.000Z,42
2023-11-07T11:51:41.000Z,41
2023-11-07T11:52:45.000Z,39
2023-11-07T11:53:50.000Z,38
2023-11-07T11:54:54.000Z,37
2023-11-07T11:55:58.000Z,38
2023-11-07T11:57:02.000Z,41
2023-11-07T11:58:06.000Z,44
2023-11-07T11:59:10.000Z,43
2023-11-07T12:00:14.000Z,41
2023-11-07T12:01:19.000Z,38
2023-11-07T12:02:23.000Z,38
2023-11-07T12:03:27.000Z,43
2023-11-07T12:04:31.000Z,43
2023-11-07T12:05:35.000Z,43
2023-11-07T12:06:39.000Z,44
2023-11-07T12:07:43.000Z,45
2023-11-07T12:08:48.000Z,44
2023-11-07T12:09:52.000Z,44
2023-11-07T12:10:56.000Z,47
2023-11-07T12:12:00.000Z,53
2023-11-07T12:13:04.000Z,58
2023-11-07T12:14:08.000Z,61
2023-11-07T12:15:12.000Z,67
2023-11-07T12:16:17.000Z,73
2023-11-07T12:17:21.000Z,72
2023-11-07T12:18:25.000Z,65
2023-11-07T12:19:29.000Z,56
2023-11-07T12:20:33.000Z,55
2023-11-07T12:21:37.000Z,52
2023-11-07T12:22:42.000Z,52
2023-11-07T12:23:46.000Z,53
2023-11-07T12:24:50.000Z,57
2023-11-07T12:25:54.000Z,59
2023-11-07T12:26:58.000Z,61
2023-11-07T12:28:02.000Z,67
2023-11-07T12:29:07.000Z,75
2023-11-07T12:30:11.000Z,89
2023-11-07T12:31:15.000Z,103
2023-11-07T12:32:19.000Z,117
2023-11-07T12:33:23.000Z,125
2023-11-07T12:34:27.000Z,125
2023-11-07T12:35:31.000Z,118
2023-11-07T12:36:35.000Z,109
2023-11-07T12:37:40.000Z,97
2023-11-07T12:38:44.000Z,91
2023-11-07T12:39:48.000Z,83
2023-11-07T12:40:52.000Z,74
2023-11-07T12:41:56.000Z,68
2023-11-07T12:43:01.000Z,63
2023-11-07T12:44:05.000Z,58
2023-11-07T12:45:09.000Z,81
2023-11-07T12:46:13.000Z,114
2023-11-07T12:47:17.000Z,63
2023-11-07T12:48:21.000Z,65
2023-11-07T12:49:26.000Z,109
2023-11-07T12:50:30.000Z,117
2023-11-07T12:51:34.000Z,114
2023-11-07T12:52:38.000Z,116
2023-11-07T12:53:42.000Z,123
2023-11-07T12:54:47.000Z,113
2023-11-07T12:55:51.000Z,97
2023-11-07T12:56:55.000Z,83
2023-11-07T12:57:59.000Z,81
2023-11-07T12:59:03.000Z,78
2023-11-07T13:00:07.000Z,78
2023-11-07T13:01:11.000Z,78
2023-11-07T13:02:16.000Z,79
2023-11-07T13:03:20.000Z,72
2023-11-07T13:04:24.000Z,73
2023-11-07T13:05:28.000Z,71
2023-11-07T13:06:32.000Z,58
2023-11-07T13:07:36.000Z,51
2023-11-07T13:08:40.000Z,47
2023-11-07T13:09:44.000Z,44
2023-11-07T13:10:49.000Z,52
2023-11-07T13:11:53.000Z,65
2023-11-07T13:12:57.000Z,69
2023-11-07T13:14:01.000Z,68
2023-11-07T13:15:05.000Z,72
2023-11-07T13:16:09.000Z,78
2023-11-07T13:17:13.000Z,74
2023-11-07T13:18:17.000Z,67
2023-11-07T13:19:22.000Z,67
2023-11-07T13:20:26.000Z,73
2023-11-07T13:21:30.000Z,79
2023-11-07T13:22:34.000Z,76
2023-11-07T13:23:38.000Z,73
2023-11-07T13:24:43.000Z,67
2023-11-07T13:25:47.000Z,59
2023-11-07T13:26:51.000Z,52
2023-11-07T13:27:55.000Z,50
2023-11-07T13:28:59.000Z,58
2023-11-07T13:30:03.000Z,70
2023-11-07T13:31:07.000Z,77
2023-11-07T13:32:12.000Z,78
2023-11-07T13:33:16.000Z,82
2023-11-07T13:34:20.000Z,84
2023-11-07T13:35:24.000Z,85
2023-11-07T13:36:28.000Z,83
2023-11-07T13:37:32.000Z,74
2023-11-07T13:38:36.000Z,69
2023-11-07T13:39:41.000Z,70
2023-11-07T13:40:45.000Z,79
2023-11-07T13:41:49.000Z,64
2023-11-07T13:42:53.000Z,74
2023-11-07T13:43:57.000Z,63
2023-11-07T13:45:01.000Z,60
2023-11-07T13:46:05.000Z,64
2023-11-07T13:47:09.000Z,65
2023-11-07T13:48:14.000Z,68
2023-11-07T13:49:18.000Z,64
2023-11-07T13:50:22.000Z,60
2023-11-07T13:51:26.000Z,54
2023-11-07T13:52:30.000Z,49
2023-11-07T13:53:34.000Z,46
2023-11-07T13:54:39.000Z,45
2023-11-07T13:55:43.000Z,45
2023-11-07T13:56:47.000Z,43
2023-11-07T13:57:51.000Z,45
2023-11-07T13:58:55.000Z,46
2023-11-07T14:00:00.000Z,48
2023-11-07T14:01:04.000Z,47
2023-11-07T14:02:08.000Z,42
2023-11-07T14:03:12.000Z,39
2023-11-07T14:04:16.000Z,37
2023-11-07T14:05:20.000Z,35
2023-11-07T14:06:24.000Z,34
2023-11-07T14:07:29.000Z,33
2023-11-07T14:08:33.000Z,32
2023-11-07T14:09:37.000Z,31
2023-11-07T14:10:41.000Z,31
2023-11-07T14:11:45.000Z,30
2023-11-07T14:12:49.000Z,30
2023-11-07T14:13:53.000Z,31
2023-11-07T14:14:58.000Z,32
2023-11-07T14:16:02.000Z,33
2023-11-07T14:17:06.000Z,33
2023-11-07T14:18:10.000Z,31
2023-11-07T14:19:14.000Z,29
2023-11-07T14:20:18.000Z,27
2023-11-07T14:21:22.000Z,26
2023-11-07T14:22:26.000Z,26
2023-11-07T14:23:31.000Z,25
2023-11-07T14:24:35.000Z,25
2023-11-07T14:25:39.000Z,24
2023-11-07T14:26:43.000Z,23
2023-11-07T14:27:47.000Z,22
2023-11-07T14:28:51.000Z,22
2023-11-07T14:29:56.000Z,24
2023-11-07T14:31:00.000Z,25
2023-11-07T14:32:04.000Z,27
2023-11-07T14:33:08.000Z,28
2023-11-07T14:34:12.000Z,30
2023-11-07T14:35:16.000Z,30
2023-11-07T14:36:20.000Z,31
2023-11-07T14:37:25.000Z,28
2023-11-07T14:38:29.000Z,26
2023-11-07T14:39:33.000Z,25
2023-11-07T14:40:37.000Z,26
2023-11-07T14:41:41.000Z,26
2023-11-07T14:42:45.000Z,25
2023-11-07T14:43:49.000Z,24
2023-11-07T14:44:53.000Z,23
2023-11-07T14:45:58.000Z,24
2023-11-07T14:47:02.000Z,24
2023-11-07T14:48:06.000Z,23
2023-11-07T14:49:10.000Z,22
2023-11-07T14:50:14.000Z,20
2023-11-07T14:51:18.000Z,18
2023-11-07T14:52:23.000Z,17
2023-11-07T14:53:27.000Z,17
2023-11-07T14:54:31.000Z,17
2023-11-07T14:55:35.000Z,17
2023-11-07T14:56:39.000Z,16
2023-11-07T14:57:43.000Z,15
2023-11-07T14:58:48.000Z,14
2023-11-07T14:59:52.000Z,13
2023-11-07T15:00:56.000Z,13
2023-11-07T15:02:00.000Z,15
2023-11-07T15:03:05.000Z,15
2023-11-07T15:04:09.000Z,15
2023-11-07T15:05:13.000Z,14
2023-11-07T15:06:17.000Z,13
2023-11-07T15:07:21.000Z,12
2023-11-07T15:08:25.000Z,11
2023-11-07T15:09:29.000Z,11
2023-11-07T15:10:34.000Z,10
2023-11-07T15:11:38.000Z,9
2023-11-07T15:12:42.000Z,9
2023-11-07T15:13:46.000Z,8
2023-11-07T15:14:50.000Z,7
2023-11-07T15:15:54.000Z,6
2023-11-07T15:16:58.000Z,6
2023-11-07T15:18:02.000Z,5
2023-11-07T15:19:07.000Z,4
2023-11-07T15:20:11.000Z,4
2023-11-07T15:21:15.000Z,3
2023-11-07T15:22:19.000Z,3
2023-11-07T15:23:23.000Z,2
2023-11-07T15:24:27.000Z,2
2023-11-07T15:25:32.000Z,2
2023-11-07T15:26:36.000Z,2